createdAt,value
2023-02-25T00:01:58.072Z,100696.88
2023-02-25T00:04:34.595Z,100703.66
2023-02-25T00:07:04.034Z,100709.59
2023-02-25T00:09:33.722Z,100717.53
2023-02-25T00:12:02.945Z,100715.75
2023-02-25T00:14:31.433Z,100716.06
2023-02-25T00:16:59.810Z,100717.78
2023-02-25T00:19:28.592Z,100717.78
2023-02-25T00:21:57.031Z,100700.59
2023-02-25T00:24:25.348Z,100696.03
2023-02-25T00:26:54.975Z,100704.06
2023-02-25T00:29:23.289Z,100698.69
2023-02-25T00:31:51.929Z,100687.50
2023-02-25T00:34:20.389Z,100699.81
2023-02-25T00:36:50.156Z,100698.22
2023-02-25T00:39:18.748Z,100696.97
2023-02-25T00:41:47.061Z,100699.16
2023-02-25T00:44:17.046Z,100690.97
2023-02-25T00:46:45.468Z,100707.66
2023-02-25T00:49:23.858Z,100696.47
2023-02-25T00:52:00.076Z,100685.75
2023-02-25T00:54:29.288Z,100682.59
2023-02-25T00:56:57.633Z,100684.47
2023-02-25T00:59:27.456Z,100687.94
2023-02-25T01:01:55.809Z,100698.16
2023-02-25T01:04:24.586Z,100699.56
2023-02-25T01:06:54.229Z,100703.66
2023-02-25T01:09:22.815Z,100695.16
2023-02-25T01:11:51.446Z,100702.88
2023-02-25T01:14:22.812Z,100700.97
2023-02-25T01:16:56.161Z,100704.13
2023-02-25T01:19:26.492Z,100701.63
2023-02-25T01:21:57.356Z,100683.38
2023-02-25T01:24:28.553Z,100699.13
2023-02-25T01:26:59.987Z,100705.75
2023-02-25T01:29:31.912Z,100701.22
2023-02-25T01:32:04.444Z,100696.81
2023-02-25T01:34:33.581Z,100700.28
2023-02-25T01:37:02.214Z,100693.03
2023-02-25T01:39:32.181Z,100699.16
2023-02-25T01:42:04.656Z,100706.72
2023-02-25T01:44:35.493Z,100712.72
2023-02-25T01:47:07.271Z,100706.56
2023-02-25T01:49:39.344Z,100710.03
2023-02-25T01:52:13.076Z,100703.38
2023-02-25T01:54:42.362Z,100712.53
2023-02-25T01:57:13.321Z,100707.78
2023-02-25T01:59:43.850Z,100716.44
2023-02-25T02:02:17.283Z,100706.03
2023-02-25T02:04:50.157Z,100722.09
2023-02-25T02:07:19.831Z,100714.84
2023-02-25T02:09:56.330Z,100710.59
2023-02-25T02:12:28.047Z,100710.28
2023-02-25T02:14:59.288Z,100710.75
2023-02-25T02:17:35.039Z,100712.06
2023-02-25T02:20:14.344Z,100713.63
2023-02-25T02:23:13.286Z,100710.31
2023-02-25T02:26:18.036Z,100712.72
2023-02-25T02:29:29.314Z,100705.94
2023-02-25T02:32:11.313Z,100697.91
2023-02-25T02:34:50.720Z,100704.38
2023-02-25T02:37:32.524Z,100708.16
2023-02-25T02:40:17.953Z,100704.38
2023-02-25T02:43:03.409Z,100692.25
2023-02-25T02:45:40.635Z,100694.56
2023-02-25T02:48:14.382Z,100704.22
2023-02-25T02:50:46.923Z,100706.91
2023-02-25T02:53:21.498Z,100715.41
2023-02-25T02:55:54.616Z,100708.94
2023-02-25T02:58:28.177Z,100722.34
2023-02-25T03:01:00.977Z,100712.91
2023-02-25T03:03:37.554Z,100719.84
2023-02-25T03:06:11.215Z,100714.19
2023-02-25T03:08:45.967Z,100713.88
2023-02-25T03:11:14.915Z,100710.41
2023-02-25T03:13:43.545Z,100715.75
2023-02-25T03:16:19.834Z,100704.25
2023-02-25T03:18:56.230Z,100709.59
2023-02-25T03:21:31.413Z,100708.81
2023-02-25T03:24:00.760Z,100711.81
2023-02-25T03:26:31.985Z,100714.97
2023-02-25T03:29:00.351Z,100713.38
2023-02-25T03:31:34.664Z,100715.75
2023-02-25T03:34:10.663Z,100715.75
2023-02-25T03:36:44.161Z,100713.88
2023-02-25T03:39:16.898Z,100714.97
2023-02-25T03:41:50.305Z,100729.16
2023-02-25T03:44:22.824Z,100730.72
2023-02-25T03:46:51.911Z,100735.78
2023-02-25T03:49:28.730Z,100737.66
2023-02-25T03:52:00.264Z,100731.22
2023-02-25T03:54:28.619Z,100722.09
2023-02-25T03:56:57.032Z,100732.03
2023-02-25T03:59:28.343Z,100737.06
2023-02-25T04:01:58.577Z,100736.75
2023-02-25T04:04:28.343Z,100741.31
2023-02-25T04:06:56.669Z,100743.69
2023-02-25T04:09:24.939Z,100740.69
2023-02-25T04:11:57.052Z,100735.81
2023-02-25T04:14:25.929Z,100731.53
2023-02-25T04:16:54.482Z,100739.09
2023-02-25T04:19:22.717Z,100745.88
2023-02-25T04:21:52.373Z,100751.25
2023-02-25T04:24:20.621Z,100745.09
2023-02-25T04:26:49.328Z,100751.25
2023-02-25T04:29:17.776Z,100752.03
2023-02-25T04:31:46.590Z,100750.47
2023-02-25T04:34:14.966Z,100745.09
2023-02-25T04:36:44.351Z,100754.25
2023-02-25T04:39:17.010Z,100744.63
2023-02-25T04:41:46.278Z,100759.59
2023-02-25T04:44:14.752Z,100755.81
2023-02-25T04:46:44.418Z,100748.09
2023-02-25T04:49:13.163Z,100755.34
2023-02-25T04:51:41.430Z,100752.66
2023-02-25T04:54:09.754Z,100754.25
2023-02-25T04:56:40.574Z,100755.03
2023-02-25T04:59:11.379Z,100755.34
2023-02-25T05:01:40.014Z,100751.06
2023-02-25T05:04:08.825Z,100755.34
2023-02-25T05:06:37.069Z,100753.13
2023-02-25T05:09:05.564Z,100750.47
2023-02-25T05:11:33.979Z,100752.66
2023-02-25T05:14:04.075Z,100762.09
2023-02-25T05:16:32.417Z,100758.63
2023-02-25T05:19:00.766Z,100760.19
2023-02-25T05:21:29.438Z,100759.09
2023-02-25T05:23:57.853Z,100761.78
2023-02-25T05:26:27.661Z,100761.78
2023-02-25T05:28:58.237Z,100751.06
2023-02-25T05:31:28.180Z,100751.06
2023-02-25T05:33:56.561Z,100751.84
2023-02-25T05:36:27.969Z,100755.34
2023-02-25T05:39:02.694Z,100751.06
2023-02-25T05:41:31.907Z,100761.78
2023-02-25T05:44:00.213Z,100753.44
2023-02-25T05:46:30.013Z,100760.06
2023-02-25T05:48:58.326Z,100767.47
2023-02-25T05:51:26.715Z,100759.44
2023-02-25T05:53:55.263Z,100765.28
2023-02-25T05:56:30.832Z,100770.63
2023-02-25T05:59:00.333Z,100769.06
2023-02-25T06:01:31.709Z,100773.63
2023-02-25T06:04:01.223Z,100773.63
2023-02-25T06:06:32.008Z,100770.94
2023-02-25T06:09:00.683Z,100774.41
2023-02-25T06:11:30.934Z,100778.66
2023-02-25T06:14:01.134Z,100775.03
2023-02-25T06:16:32.643Z,100765.75
2023-02-25T06:19:02.641Z,100787.78
2023-02-25T06:21:31.864Z,100781.47
2023-02-25T06:24:00.532Z,100789.78
2023-02-25T06:26:29.223Z,100773.72
2023-02-25T06:28:58.733Z,100779.38
2023-02-25T06:31:27.179Z,100789.13
2023-02-25T06:33:56.871Z,100790.06
2023-02-25T06:36:25.718Z,100804.84
2023-02-25T06:38:54.297Z,100798.41
2023-02-25T06:41:23.791Z,100802.38
2023-02-25T06:43:52.998Z,100800.78
2023-02-25T06:46:24.197Z,100804.56
2023-02-25T06:48:53.378Z,100793.84
2023-02-25T06:51:23.059Z,100809.94
2023-02-25T06:53:53.041Z,100804.56
2023-02-25T06:56:22.284Z,100814.50
2023-02-25T06:58:52.642Z,100816.88
2023-02-25T07:01:21.371Z,100822.69
2023-02-25T07:03:49.872Z,100823.91
2023-02-25T07:06:18.533Z,100835.00
2023-02-25T07:08:48.183Z,100840.81
2023-02-25T07:11:30.944Z,100824.91
2023-02-25T07:13:59.240Z,100839.09
2023-02-25T07:16:29.987Z,100834.72
2023-02-25T07:19:02.214Z,100833.50
2023-02-25T07:21:31.867Z,100843.13
2023-02-25T07:24:02.249Z,100840.13
2023-02-25T07:26:30.650Z,100846.13
2023-02-25T07:29:00.569Z,100846.34
2023-02-25T07:31:30.073Z,100849.19
2023-02-25T07:34:03.438Z,100846.38
2023-02-25T07:36:33.177Z,100851.13
2023-02-25T07:39:04.352Z,100847.00
2023-02-25T07:41:32.765Z,100846.38
2023-02-25T07:44:01.900Z,100852.25
2023-02-25T07:46:31.191Z,100850.06
2023-02-25T07:48:59.692Z,100852.72
2023-02-25T07:51:28.635Z,100846.91
2023-02-25T07:53:58.646Z,100849.25
2023-02-25T07:56:31.170Z,100857.00
2023-02-25T07:59:00.423Z,100852.56
2023-02-25T08:01:31.727Z,100866.66
2023-02-25T08:04:04.187Z,100869.69
2023-02-25T08:06:33.646Z,100866.53
2023-02-25T08:09:02.179Z,100876.81
2023-02-25T08:11:31.846Z,100877.78
2023-02-25T08:14:01.436Z,100876.03
2023-02-25T08:16:30.098Z,100873.84
2023-02-25T08:18:58.563Z,100872.91
2023-02-25T08:21:28.200Z,100870.56
2023-02-25T08:23:56.800Z,100882.91
2023-02-25T08:26:27.624Z,100874.53
2023-02-25T08:28:58.594Z,100879.63
2023-02-25T08:31:27.655Z,100871.38
2023-02-25T08:33:58.028Z,100873.63
2023-02-25T08:36:28.553Z,100876.47
2023-02-25T08:38:58.821Z,100862.38
2023-02-25T08:41:29.612Z,100879.75
2023-02-25T08:44:02.036Z,100875.34
2023-02-25T08:46:32.874Z,100869.81
2023-02-25T08:49:01.260Z,100877.53
2023-02-25T08:51:34.743Z,100889.84
2023-02-25T08:54:05.743Z,100892.25
2023-02-25T08:56:36.277Z,100893.84
2023-02-25T08:59:06.462Z,100896.81
2023-02-25T09:01:45.754Z,100901.25
2023-02-25T09:04:15.845Z,100888.59
2023-02-25T09:06:47.453Z,100887.81
2023-02-25T09:09:17.175Z,100890.69
2023-02-25T09:11:46.720Z,100893.19
2023-02-25T09:14:17.973Z,100891.28
2023-02-25T09:16:49.610Z,100892.69
2023-02-25T09:19:18.500Z,100892.53
2023-02-25T09:21:48.714Z,100899.00
2023-02-25T09:24:17.988Z,100908.16
2023-02-25T09:26:46.420Z,100912.56
2023-02-25T09:29:16.290Z,100912.69
2023-02-25T09:31:44.781Z,100922.03
2023-02-25T09:34:15.304Z,100925.63
2023-02-25T09:36:43.919Z,100921.88
2023-02-25T09:39:12.359Z,100922.66
2023-02-25T09:41:53.414Z,100927.72
2023-02-25T09:44:31.209Z,100930.25
2023-02-25T09:47:05.451Z,100926.44
2023-02-25T09:49:38.838Z,100933.53
2023-02-25T09:52:16.947Z,100936.22
2023-02-25T09:54:48.441Z,100932.72
2023-02-25T09:57:21.541Z,100937.25
2023-02-25T09:59:54.417Z,100945.78
2023-02-25T10:02:34.078Z,100960.19
2023-02-25T10:05:25.510Z,100960.06
2023-02-25T10:08:07.541Z,100951.66
2023-02-25T10:10:46.791Z,100963.41
2023-02-25T10:13:28.899Z,100959.31
2023-02-25T10:16:12.120Z,100960.44
2023-02-25T10:19:01.622Z,100971.19
2023-02-25T10:21:48.232Z,100966.25
2023-02-25T10:24:31.043Z,100967.84
2023-02-25T10:27:11.357Z,100964.19
2023-02-25T10:29:46.452Z,100974.53
2023-02-25T10:32:22.850Z,100990.31
2023-02-25T10:34:53.420Z,101005.53
2023-02-25T10:37:27.496Z,101007.25
2023-02-25T10:39:59.986Z,101007.47
2023-02-25T10:42:28.655Z,101023.38
2023-02-25T10:45:01.948Z,101021.03
2023-02-25T10:47:36.815Z,101026.41
2023-02-25T10:50:19.600Z,101026.56
2023-02-25T10:52:56.657Z,101023.72
2023-02-25T10:55:40.540Z,101027.81
2023-02-25T10:58:34.580Z,101023.41
2023-02-25T11:01:09.293Z,101030.94
2023-02-25T11:03:48.032Z,101024.19
2023-02-25T11:06:25.001Z,101031.91
2023-02-25T11:08:54.834Z,101014.72
2023-02-25T11:11:25.452Z,101014.56
2023-02-25T11:14:07.067Z,101015.47
2023-02-25T11:16:38.133Z,101022.13
2023-02-25T11:19:16.880Z,101026.63
2023-02-25T11:21:46.363Z,101022.81
2023-02-25T11:24:17.626Z,101024.63
2023-02-25T11:26:48.713Z,101034.75
2023-02-25T11:29:19.200Z,101032.25
2023-02-25T11:31:53.575Z,101035.84
2023-02-25T11:34:26.848Z,101038.78
2023-02-25T11:36:55.472Z,101031.34
2023-02-25T11:39:27.142Z,101039.34
2023-02-25T11:41:58.009Z,101038.94
2023-02-25T11:44:33.645Z,101037.41
2023-02-25T11:47:24.962Z,101044.81
2023-02-25T11:50:13.602Z,101034.75
2023-02-25T11:52:46.037Z,101042.28
2023-02-25T11:55:31.786Z,101025.81
2023-02-25T11:58:11.246Z,101017.59
2023-02-25T12:00:47.592Z,101028.19
2023-02-25T12:03:47.474Z,101024.28
2023-02-25T12:06:33.905Z,101026.38
2023-02-25T12:09:53.090Z,101013.13
2023-02-25T12:13:14.016Z,101025.59
2023-02-25T12:16:44.510Z,101026.75
2023-02-25T12:19:57.753Z,101020.13
2023-02-25T12:23:06.337Z,101029.38
2023-02-25T12:25:43.401Z,101029.69
2023-02-25T12:28:55.359Z,101029.81
2023-02-25T12:32:04.752Z,101031.88
2023-02-25T12:34:59.490Z,101039.75
2023-02-25T12:37:53.461Z,101031.13
2023-02-25T12:40:48.216Z,101035.19
2023-02-25T12:43:30.966Z,101034.75
2023-02-25T12:46:28.576Z,101038.78
2023-02-25T12:49:51.554Z,101039.38
2023-02-25T12:52:35.751Z,101032.81
2023-02-25T12:55:37.348Z,101048.59
2023-02-25T12:58:33.693Z,101047.13
2023-02-25T13:01:39.825Z,101038.97
2023-02-25T13:04:49.865Z,101039.94
2023-02-25T13:07:53.782Z,101037.06
2023-02-25T13:10:59.633Z,101038.91
2023-02-25T13:14:04.176Z,101047.56
2023-02-25T13:17:03.680Z,101046.19
2023-02-25T13:19:57.874Z,101050.28
2023-02-25T13:22:50.171Z,101055.50
2023-02-25T13:25:26.584Z,101053.94
2023-02-25T13:28:16.736Z,101052.44
2023-02-25T13:30:58.101Z,101062.56
2023-02-25T13:33:46.396Z,101067.38
2023-02-25T13:36:48.426Z,101073.31
2023-02-25T13:39:36.883Z,101066.88
2023-02-25T13:42:28.789Z,101065.94
2023-02-25T13:45:35.273Z,101078.94
2023-02-25T13:48:34.488Z,101074.63
2023-02-25T13:51:31.330Z,101081.41
2023-02-25T13:54:43.223Z,101088.53
2023-02-25T13:57:28.688Z,101080.63
2023-02-25T14:00:36.219Z,101089.63
2023-02-25T14:04:04.767Z,101089.75
2023-02-25T14:06:50.452Z,101090.03
2023-02-25T14:09:44.139Z,101098.59
2023-02-25T14:12:29.431Z,101088.72
2023-02-25T14:15:20.727Z,101082.22
2023-02-25T14:18:13.293Z,101096.03
2023-02-25T14:20:53.018Z,101109.69
2023-02-25T14:23:36.441Z,101110.59
2023-02-25T14:26:24.970Z,101112.38
2023-02-25T14:29:09.288Z,101108.63
2023-02-25T14:32:14.355Z,101117.34
2023-02-25T14:35:02.721Z,101120.66
2023-02-25T14:37:40.261Z,101115.22
2023-02-25T14:40:24.226Z,101131.88
2023-02-25T14:43:13.562Z,101138.81
2023-02-25T14:45:45.655Z,101132.06
2023-02-25T14:48:22.373Z,101137.81
2023-02-25T14:50:56.119Z,101134.22
2023-02-25T14:53:54.436Z,101153.50
2023-02-25T14:56:52.647Z,101148.78
2023-02-25T15:00:02.508Z,101153.53
2023-02-25T15:03:03.293Z,101160.03
2023-02-25T15:06:14.609Z,101158.81
2023-02-25T15:09:19.272Z,101162.28
2023-02-25T15:12:15.665Z,101169.25
2023-02-25T15:16:04.823Z,101167.81
2023-02-25T15:19:22.517Z,101173.84
2023-02-25T15:22:18.497Z,101180.63
2023-02-25T15:24:47.897Z,101190.47
2023-02-25T15:27:50.825Z,101183.16
2023-02-25T15:30:22.574Z,101180.81
2023-02-25T15:33:17.369Z,101192.22
2023-02-25T15:35:58.590Z,101187.44
2023-02-25T15:38:46.192Z,101197.59
2023-02-25T15:41:45.886Z,101197.88
2023-02-25T15:44:38.413Z,101201.34
2023-02-25T15:47:28.102Z,101210.19
2023-02-25T15:49:59.020Z,101220.78
2023-02-25T15:52:58.168Z,101217.13
2023-02-25T15:55:42.423Z,101219.97
2023-02-25T15:58:47.483Z,101219.00
2023-02-25T16:01:39.467Z,101221.22
2023-02-25T16:04:46.043Z,101225.00
2023-02-25T16:07:19.546Z,101228.00
2023-02-25T16:09:55.421Z,101229.41
2023-02-25T16:12:26.181Z,101234.31
2023-02-25T16:14:57.874Z,101240.94
2023-02-25T16:17:33.786Z,101239.00
2023-02-25T16:20:16.948Z,101249.22
2023-02-25T16:22:48.485Z,101244.59
2023-02-25T16:25:20.277Z,101250.88
2023-02-25T16:28:00.591Z,101256.91
2023-02-25T16:30:37.318Z,101264.75
2023-02-25T16:33:23.045Z,101262.97
2023-02-25T16:36:07.472Z,101261.72
2023-02-25T16:38:45.172Z,101266.91
2023-02-25T16:41:16.575Z,101276.38
2023-02-25T16:43:46.806Z,101281.25
2023-02-25T16:46:19.859Z,101281.38
2023-02-25T16:48:51.840Z,101288.75
2023-02-25T16:51:25.999Z,101293.13
2023-02-25T16:54:01.236Z,101296.44
2023-02-25T16:56:32.329Z,101307.75
2023-02-25T16:59:07.719Z,101309.97
2023-02-25T17:01:38.669Z,101316.56
2023-02-25T17:04:20.888Z,101325.22
2023-02-25T17:07:14.748Z,101329.09
2023-02-25T17:09:49.126Z,101334.59
2023-02-25T17:12:21.512Z,101332.22
2023-02-25T17:14:54.101Z,101336.56
2023-02-25T17:17:29.178Z,101340.13
2023-02-25T17:19:59.236Z,101348.31
2023-02-25T17:22:28.896Z,101353.16
2023-02-25T17:24:59.392Z,101349.00
2023-02-25T17:27:29.711Z,101361.59
2023-02-25T17:29:59.490Z,101358.25
2023-02-25T17:32:32.059Z,101363.69
2023-02-25T17:35:03.448Z,101362.72
2023-02-25T17:37:32.681Z,101356.34
2023-02-25T17:40:04.514Z,101358.03
2023-02-25T17:42:35.550Z,101357.06
2023-02-25T17:45:08.253Z,101367.84
2023-02-25T17:47:38.317Z,101371.75
2023-02-25T17:50:23.351Z,101377.69
2023-02-25T17:52:51.835Z,101376.38
2023-02-25T17:55:27.360Z,101382.34
2023-02-25T17:57:59.906Z,101389.06
2023-02-25T18:00:32.763Z,101391.53
2023-02-25T18:03:25.289Z,101392.91
2023-02-25T18:05:55.107Z,101399.47
2023-02-25T18:08:24.682Z,101400.06
2023-02-25T18:10:59.588Z,101409.47
2023-02-25T18:13:35.247Z,101418.09
2023-02-25T18:16:38.666Z,101412.50
2023-02-25T18:19:26.542Z,101412.63
2023-02-25T18:21:55.540Z,101411.28
2023-02-25T18:24:33.064Z,101416.94
2023-02-25T18:27:04.740Z,101428.75
2023-02-25T18:29:34.061Z,101437.66
2023-02-25T18:32:05.278Z,101440.91
2023-02-25T18:34:33.798Z,101437.44
2023-02-25T18:37:02.301Z,101435.84
2023-02-25T18:39:30.939Z,101452.50
2023-02-25T18:41:59.188Z,101448.81
2023-02-25T18:44:27.633Z,101450.47
2023-02-25T18:46:55.911Z,101457.97
2023-02-25T18:49:25.733Z,101454.28
2023-02-25T18:51:54.237Z,101449.22
2023-02-25T18:54:22.687Z,101455.97
2023-02-25T18:56:51.054Z,101462.09
2023-02-25T18:59:19.510Z,101457.63
2023-02-25T19:01:47.892Z,101462.97
2023-02-25T19:04:19.669Z,101469.41
2023-02-25T19:06:49.965Z,101473.19
2023-02-25T19:09:18.415Z,101481.22
2023-02-25T19:11:47.083Z,101483.66
2023-02-25T19:14:19.772Z,101486.63
2023-02-25T19:16:48.384Z,101486.63
2023-02-25T19:19:16.753Z,101491.97
2023-02-25T19:21:45.169Z,101489.56
2023-02-25T19:24:14.862Z,101489.06
2023-02-25T19:26:44.170Z,101498.44
2023-02-25T19:29:12.504Z,101492.91
2023-02-25T19:31:41.019Z,101504.97
2023-02-25T19:34:09.430Z,101506.09
2023-02-25T19:36:37.760Z,101502.91
2023-02-25T19:39:06.720Z,101507.75
2023-02-25T19:41:38.499Z,101513.66
2023-02-25T19:44:06.944Z,101512.13
2023-02-25T19:46:35.282Z,101510.03
2023-02-25T19:49:03.824Z,101509.53
2023-02-25T19:51:32.228Z,101511.97
2023-02-25T19:54:00.605Z,101511.19
2023-02-25T19:56:29.569Z,101507.78
2023-02-25T19:58:59.730Z,101515.84
2023-02-25T20:01:28.078Z,101514.03
2023-02-25T20:03:56.475Z,101520.50
2023-02-25T20:06:26.095Z,101524.00
2023-02-25T20:08:55.894Z,101525.63
2023-02-25T20:11:25.570Z,101524.31
2023-02-25T20:13:54.044Z,101536.16
2023-02-25T20:16:25.241Z,101536.19
2023-02-25T20:18:56.378Z,101539.69
2023-02-25T20:21:25.255Z,101538.38
2023-02-25T20:23:54.147Z,101548.00
2023-02-25T20:26:24.527Z,101556.06
2023-02-25T20:28:55.198Z,101553.44
2023-02-25T20:31:26.671Z,101555.34
2023-02-25T20:33:57.724Z,101558.81
2023-02-25T20:36:27.947Z,101563.38
2023-02-25T20:39:18.452Z,101567.97
2023-02-25T20:41:47.953Z,101551.72
2023-02-25T20:44:17.924Z,101563.50
2023-02-25T20:46:48.003Z,101561.63
2023-02-25T20:49:19.648Z,101566.75
2023-02-25T20:51:49.904Z,101565.16
2023-02-25T20:54:20.395Z,101576.63
2023-02-25T20:56:50.067Z,101580.38
2023-02-25T20:59:19.457Z,101590.53
2023-02-25T21:01:49.194Z,101580.13
2023-02-25T21:04:17.780Z,101580.66
2023-02-25T21:06:46.175Z,101576.66
2023-02-25T21:09:14.528Z,101583.63
2023-02-25T21:11:43.342Z,101586.59
2023-02-25T21:14:11.813Z,101596.72
2023-02-25T21:16:40.653Z,101596.47
2023-02-25T21:19:17.014Z,101603.41
2023-02-25T21:21:45.514Z,101601.28
2023-02-25T21:24:15.222Z,101601.03
2023-02-25T21:26:44.738Z,101611.19
2023-02-25T21:29:18.042Z,101615.97
2023-02-25T21:31:46.643Z,101607.44
2023-02-25T21:34:16.447Z,101606.63
2023-02-25T21:36:45.067Z,101607.97
2023-02-25T21:39:13.523Z,101608.78
2023-02-25T21:41:44.479Z,101611.44
2023-02-25T21:44:13.797Z,101618.13
2023-02-25T21:46:42.673Z,101611.19
2023-02-25T21:49:12.624Z,101614.66
2023-02-25T21:51:42.352Z,101626.13
2023-02-25T21:54:11.053Z,101628.00
2023-02-25T21:56:39.749Z,101636.78
2023-02-25T21:59:08.358Z,101635.69
2023-02-25T22:01:41.694Z,101637.03
2023-02-25T22:04:11.221Z,101627.44
2023-02-25T22:06:42.949Z,101645.56
2023-02-25T22:09:11.791Z,101645.03
2023-02-25T22:11:40.473Z,101651.41
2023-02-25T22:14:10.576Z,101651.13
2023-02-25T22:16:40.291Z,101640.72
2023-02-25T22:19:09.059Z,101652.47
2023-02-25T22:21:37.888Z,101650.31
2023-02-25T22:24:08.014Z,101657.47
2023-02-25T22:26:37.464Z,101665.22
2023-02-25T22:29:08.406Z,101672.94
2023-02-25T22:31:38.114Z,101669.19
2023-02-25T22:34:08.201Z,101657.22
2023-02-25T22:36:36.941Z,101631.13
2023-02-25T22:39:08.350Z,101637.78
2023-02-25T22:41:37.983Z,101643.94
2023-02-25T22:44:06.890Z,101639.44
2023-02-25T22:46:37.759Z,101641.56
2023-02-25T22:49:07.531Z,101651.97
2023-02-25T22:51:40.606Z,101657.84
2023-02-25T22:54:11.430Z,101660.53
2023-02-25T22:56:40.472Z,101667.72
2023-02-25T22:59:09.742Z,101662.13
2023-02-25T23:01:38.779Z,101665.88
2023-02-25T23:04:08.948Z,101666.38
2023-02-25T23:06:44.103Z,101670.41
2023-02-25T23:09:15.487Z,101676.25
2023-02-25T23:11:45.520Z,101679.22
2023-02-25T23:14:15.452Z,101673.59
2023-02-25T23:16:46.024Z,101672.28
2023-02-25T23:19:19.754Z,101672.56
2023-02-25T23:21:48.412Z,101665.06
2023-02-25T23:24:19.604Z,101664.81
2023-02-25T23:26:50.870Z,101668.53
2023-02-25T23:29:19.585Z,101676.00
2023-02-25T23:31:49.946Z,101681.88
2023-02-25T23:34:23.108Z,101677.59
2023-02-25T23:36:51.832Z,101678.41
2023-02-25T23:39:21.524Z,101678.09
2023-02-25T23:41:50.020Z,101678.66
2023-02-25T23:44:18.420Z,101679.16
2023-02-25T23:46:46.704Z,101672.78
2023-02-25T23:49:17.717Z,101682.63
2023-02-25T23:51:47.910Z,101683.41
2023-02-25T23:54:20.395Z,101674.88
2023-02-25T23:56:49.573Z,101697.50
2023-02-25T23:59:18.220Z,101696.69
